sensor_id;sensor_type;location;lat;lon;timestamp;P1;durP1;ratioP1;P2;durP2;ratioP2
19404;SDS011;9838;49.384;8.292;2023-09-18T00:08:43;2.25;;;1.02;;
19404;SDS011;9838;49.384;8.292;2023-09-18T00:18:45;4.88;;;1.20;;
19404;SDS011;9838;49.384;8.292;2023-09-18T00:28:47;2.97;;;1.30;;
19404;SDS011;9838;49.384;8.292;2023-09-18T00:38:49;2.33;;;1.00;;
19404;SDS011;9838;49.384;8.292;2023-09-18T00:48:50;1.83;;;1.00;;
19404;SDS011;9838;49.384;8.292;2023-09-18T00:58:52;3.50;;;1.20;;
19404;SDS011;9838;49.384;8.292;2023-09-18T01:08:55;2.95;;;1.05;;
19404;SDS011;9838;49.384;8.292;2023-09-18T01:18:56;3.58;;;1.15;;
19404;SDS011;9838;49.384;8.292;2023-09-18T01:29:00;2.58;;;1.00;;
19404;SDS011;9838;49.384;8.292;2023-09-18T01:39:02;2.08;;;0.85;;
19404;SDS011;9838;49.384;8.292;2023-09-18T01:49:04;1.60;;;0.98;;
19404;SDS011;9838;49.384;8.292;2023-09-18T01:59:05;1.80;;;1.08;;
19404;SDS011;9838;49.384;8.292;2023-09-18T02:09:07;1.30;;;0.88;;
19404;SDS011;9838;49.384;8.292;2023-09-18T02:19:10;1.40;;;0.85;;
19404;SDS011;9838;49.384;8.292;2023-09-18T02:29:12;1.80;;;1.10;;
19404;SDS011;9838;49.384;8.292;2023-09-18T02:39:15;1.77;;;1.20;;
19404;SDS011;9838;49.384;8.292;2023-09-18T02:49:17;2.85;;;0.95;;
19404;SDS011;9838;49.384;8.292;2023-09-18T02:59:19;4.82;;;0.88;;
19404;SDS011;9838;49.384;8.292;2023-09-18T03:09:22;1.67;;;0.85;;
19404;SDS011;9838;49.384;8.292;2023-09-18T03:19:25;2.08;;;1.15;;
19404;SDS011;9838;49.384;8.292;2023-09-18T03:29:28;2.67;;;0.93;;
19404;SDS011;9838;49.384;8.292;2023-09-18T03:39:31;2.97;;;0.80;;
19404;SDS011;9838;49.384;8.292;2023-09-18T03:49:33;5.80;;;1.08;;
19404;SDS011;9838;49.384;8.292;2023-09-18T03:59:35;5.05;;;1.30;;
19404;SDS011;9838;49.384;8.292;2023-09-18T04:09:38;4.32;;;1.45;;
19404;SDS011;9838;49.384;8.292;2023-09-18T04:19:40;3.17;;;1.10;;
19404;SDS011;9838;49.384;8.292;2023-09-18T04:29:45;3.50;;;0.90;;
19404;SDS011;9838;49.384;8.292;2023-09-18T04:39:47;2.03;;;1.10;;
19404;SDS011;9838;49.384;8.292;2023-09-18T04:49:49;3.17;;;1.05;;
19404;SDS011;9838;49.384;8.292;2023-09-18T04:59:52;3.08;;;1.30;;
19404;SDS011;9838;49.384;8.292;2023-09-18T05:09:54;2.13;;;0.98;;
19404;SDS011;9838;49.384;8.292;2023-09-18T05:19:56;2.20;;;1.10;;
19404;SDS011;9838;49.384;8.292;2023-09-18T05:29:57;4.63;;;1.23;;
19404;SDS011;9838;49.384;8.292;2023-09-18T05:39:59;5.18;;;1.40;;
19404;SDS011;9838;49.384;8.292;2023-09-18T05:50:02;2.85;;;0.90;;
19404;SDS011;9838;49.384;8.292;2023-09-18T06:00:07;2.88;;;0.95;;
19404;SDS011;9838;49.384;8.292;2023-09-18T06:10:14;3.15;;;1.75;;
19404;SDS011;9838;49.384;8.292;2023-09-18T06:20:17;1.23;;;0.80;;
19404;SDS011;9838;49.384;8.292;2023-09-18T06:30:19;2.15;;;0.80;;
19404;SDS011;9838;49.384;8.292;2023-09-18T06:40:21;2.47;;;0.60;;
19404;SDS011;9838;49.384;8.292;2023-09-18T06:50:23;1.23;;;0.82;;
19404;SDS011;9838;49.384;8.292;2023-09-18T07:00:25;2.88;;;0.50;;
19404;SDS011;9838;49.384;8.292;2023-09-18T07:10:26;1.23;;;0.57;;
19404;SDS011;9838;49.384;8.292;2023-09-18T07:20:28;1.33;;;0.60;;
19404;SDS011;9838;49.384;8.292;2023-09-18T07:30:30;2.40;;;0.60;;
19404;SDS011;9838;49.384;8.292;2023-09-18T07:40:32;2.08;;;0.70;;
19404;SDS011;9838;49.384;8.292;2023-09-18T07:50:35;1.83;;;0.77;;
19404;SDS011;9838;49.384;8.292;2023-09-18T08:00:37;1.07;;;0.63;;
19404;SDS011;9838;49.384;8.292;2023-09-18T08:10:39;3.55;;;0.60;;
19404;SDS011;9838;49.384;8.292;2023-09-18T08:20:42;3.17;;;0.65;;
19404;SDS011;9838;49.384;8.292;2023-09-18T08:30:44;1.90;;;0.63;;
19404;SDS011;9838;49.384;8.292;2023-09-18T08:40:48;1.98;;;0.50;;
19404;SDS011;9838;49.384;8.292;2023-09-18T08:50:50;2.17;;;0.70;;
19404;SDS011;9838;49.384;8.292;2023-09-18T09:00:52;1.10;;;0.50;;
19404;SDS011;9838;49.384;8.292;2023-09-18T09:10:54;1.02;;;0.60;;
19404;SDS011;9838;49.384;8.292;2023-09-18T09:20:59;1.98;;;0.55;;
19404;SDS011;9838;49.384;8.292;2023-09-18T09:31:02;2.63;;;0.60;;
19404;SDS011;9838;49.384;8.292;2023-09-18T09:41:05;2.38;;;0.50;;
19404;SDS011;9838;49.384;8.292;2023-09-18T09:51:07;1.33;;;0.55;;
19404;SDS011;9838;49.384;8.292;2023-09-18T10:01:11;0.90;;;0.50;;
19404;SDS011;9838;49.384;8.292;2023-09-18T10:11:18;0.77;;;0.40;;
19404;SDS011;9838;49.384;8.292;2023-09-18T10:21:26;1.30;;;0.50;;
19404;SDS011;9838;49.384;8.292;2023-09-18T10:31:39;2.05;;;0.40;;
19404;SDS011;9838;49.384;8.292;2023-09-18T10:41:43;2.05;;;0.60;;
19404;SDS011;9838;49.384;8.292;2023-09-18T10:51:46;0.85;;;0.52;;
19404;SDS011;9838;49.384;8.292;2023-09-18T11:01:48;2.63;;;0.50;;
19404;SDS011;9838;49.384;8.292;2023-09-18T11:22:06;1.83;;;0.70;;
19404;SDS011;9838;49.384;8.292;2023-09-18T11:32:11;3.80;;;0.75;;
19404;SDS011;9838;49.384;8.292;2023-09-18T11:42:15;0.95;;;0.50;;
19404;SDS011;9838;49.384;8.292;2023-09-18T11:52:19;0.77;;;0.50;;
19404;SDS011;9838;49.384;8.292;2023-09-18T12:02:28;1.13;;;0.60;;
19404;SDS011;9838;49.384;8.292;2023-09-18T12:12:36;0.80;;;0.50;;
19404;SDS011;9838;49.384;8.292;2023-09-18T12:22:37;1.17;;;0.60;;
19404;SDS011;9838;49.384;8.292;2023-09-18T12:32:39;2.00;;;0.40;;
19404;SDS011;9838;49.384;8.292;2023-09-18T12:42:41;1.95;;;0.50;;
19404;SDS011;9838;49.384;8.292;2023-09-18T12:52:43;2.10;;;0.52;;
19404;SDS011;9838;49.384;8.292;2023-09-18T13:02:49;1.45;;;0.40;;
19404;SDS011;9838;49.384;8.292;2023-09-18T13:13:03;1.40;;;0.50;;
19404;SDS011;9838;49.384;8.292;2023-09-18T13:23:09;1.10;;;0.40;;
19404;SDS011;9838;49.384;8.292;2023-09-18T13:33:28;1.20;;;0.63;;
19404;SDS011;9838;49.384;8.292;2023-09-18T13:43:35;1.65;;;0.60;;
19404;SDS011;9838;49.384;8.292;2023-09-18T13:53:58;1.30;;;0.63;;
19404;SDS011;9838;49.384;8.292;2023-09-18T14:04:21;0.70;;;0.57;;
19404;SDS011;9838;49.384;8.292;2023-09-18T14:14:26;0.90;;;0.50;;
19404;SDS011;9838;49.384;8.292;2023-09-18T14:25:03;1.23;;;0.60;;
19404;SDS011;9838;49.384;8.292;2023-09-18T14:35:16;1.13;;;0.47;;
19404;SDS011;9838;49.384;8.292;2023-09-18T14:45:25;1.40;;;0.50;;
19404;SDS011;9838;49.384;8.292;2023-09-18T14:55:34;0.80;;;0.40;;
19404;SDS011;9838;49.384;8.292;2023-09-18T15:05:38;1.85;;;0.60;;
19404;SDS011;9838;49.384;8.292;2023-09-18T15:15:52;0.80;;;0.40;;
19404;SDS011;9838;49.384;8.292;2023-09-18T15:25:57;1.13;;;0.60;;
19404;SDS011;9838;49.384;8.292;2023-09-18T15:36:08;1.98;;;0.50;;
19404;SDS011;9838;49.384;8.292;2023-09-18T15:46:17;0.73;;;0.30;;
19404;SDS011;9838;49.384;8.292;2023-09-18T15:56:39;1.02;;;0.45;;
19404;SDS011;9838;49.384;8.292;2023-09-18T16:07:02;1.27;;;0.70;;
19404;SDS011;9838;49.384;8.292;2023-09-18T16:17:34;0.93;;;0.50;;
19404;SDS011;9838;49.384;8.292;2023-09-18T16:27:41;1.05;;;0.45;;
19404;SDS011;9838;49.384;8.292;2023-09-18T16:37:52;1.85;;;0.50;;
19404;SDS011;9838;49.384;8.292;2023-09-18T16:48:01;1.00;;;0.40;;
19404;SDS011;9838;49.384;8.292;2023-09-18T16:58:10;1.52;;;0.55;;
19404;SDS011;9838;49.384;8.292;2023-09-18T17:08:18;1.10;;;0.60;;
19404;SDS011;9838;49.384;8.292;2023-09-18T17:18:23;0.77;;;0.32;;
19404;SDS011;9838;49.384;8.292;2023-09-18T17:28:40;4.35;;;1.00;;
19404;SDS011;9838;49.384;8.292;2023-09-18T17:39:09;1.73;;;0.52;;
19404;SDS011;9838;49.384;8.292;2023-09-18T17:49:34;1.05;;;0.45;;
19404;SDS011;9838;49.384;8.292;2023-09-18T17:59:45;2.20;;;0.40;;
19404;SDS011;9838;49.384;8.292;2023-09-18T18:09:57;1.35;;;0.40;;
19404;SDS011;9838;49.384;8.292;2023-09-18T18:20:23;0.20;;;0.20;;
19404;SDS011;9838;49.384;8.292;2023-09-18T18:30:33;1.65;;;0.30;;
19404;SDS011;9838;49.384;8.292;2023-09-18T18:40:40;0.47;;;0.28;;
19404;SDS011;9838;49.384;8.292;2023-09-18T19:01:17;0.30;;;0.30;;
19404;SDS011;9838;49.384;8.292;2023-09-18T19:11:21;0.47;;;0.30;;
19404;SDS011;9838;49.384;8.292;2023-09-18T19:21:23;0.83;;;0.40;;
19404;SDS011;9838;49.384;8.292;2023-09-18T19:31:25;1.05;;;0.50;;
19404;SDS011;9838;49.384;8.292;2023-09-18T19:41:27;0.40;;;0.30;;
19404;SDS011;9838;49.384;8.292;2023-09-18T19:51:30;0.82;;;0.45;;
19404;SDS011;9838;49.384;8.292;2023-09-18T20:01:33;2.10;;;0.30;;
19404;SDS011;9838;49.384;8.292;2023-09-18T20:11:35;1.35;;;0.40;;
19404;SDS011;9838;49.384;8.292;2023-09-18T20:21:38;0.63;;;0.33;;
19404;SDS011;9838;49.384;8.292;2023-09-18T20:31:40;0.83;;;0.63;;
19404;SDS011;9838;49.384;8.292;2023-09-18T20:41:42;1.00;;;0.40;;
19404;SDS011;9838;49.384;8.292;2023-09-18T20:51:46;2.10;;;0.63;;
19404;SDS011;9838;49.384;8.292;2023-09-18T21:01:48;0.70;;;0.50;;
19404;SDS011;9838;49.384;8.292;2023-09-18T21:11:51;0.73;;;0.40;;
19404;SDS011;9838;49.384;8.292;2023-09-18T21:21:53;0.50;;;0.20;;
19404;SDS011;9838;49.384;8.292;2023-09-18T21:31:56;0.60;;;0.30;;
19404;SDS011;9838;49.384;8.292;2023-09-18T21:41:58;1.53;;;0.30;;
19404;SDS011;9838;49.384;8.292;2023-09-18T21:52:00;0.70;;;0.30;;
19404;SDS011;9838;49.384;8.292;2023-09-18T22:02:02;0.50;;;0.30;;
19404;SDS011;9838;49.384;8.292;2023-09-18T22:12:05;0.77;;;0.30;;
19404;SDS011;9838;49.384;8.292;2023-09-18T22:22:07;0.43;;;0.30;;
19404;SDS011;9838;49.384;8.292;2023-09-18T22:32:11;1.13;;;0.47;;
19404;SDS011;9838;49.384;8.292;2023-09-18T23:02:38;0.20;;;0.20;;
19404;SDS011;9838;49.384;8.292;2023-09-18T23:12:44;0.70;;;0.30;;
19404;SDS011;9838;49.384;8.292;2023-09-18T23:22:46;0.33;;;0.30;;
19404;SDS011;9838;49.384;8.292;2023-09-18T23:32:52;0.23;;;0.20;;
19404;SDS011;9838;49.384;8.292;2023-09-18T23:42:54;0.50;;;0.30;;
19404;SDS011;9838;49.384;8.292;2023-09-18T23:52:56;0.87;;;0.40;;
